createdAt,value
2022-09-06T00:01:14.014Z,96469.50
2022-09-06T00:03:41.894Z,96467.41
2022-09-06T00:06:11.753Z,96464.28
2022-09-06T00:08:39.699Z,96460.19
2022-09-06T00:11:08.274Z,96465.97
2022-09-06T00:13:37.883Z,96462.44
2022-09-06T00:16:08.071Z,96474.81
2022-09-06T00:18:35.692Z,96477.31
2022-09-06T00:21:04.271Z,96474.25
2022-09-06T00:23:31.770Z,96474.47
2022-09-06T00:26:06.012Z,96480.03
2022-09-06T00:28:33.509Z,96484.78
2022-09-06T00:31:10.557Z,96488.31
2022-09-06T00:33:38.360Z,96489.56
2022-09-06T00:36:06.450Z,96484.56
2022-09-06T00:38:35.016Z,96486.00
2022-09-06T00:41:02.836Z,96478.66
2022-09-06T00:43:30.362Z,96488.16
2022-09-06T00:45:58.338Z,96493.13
2022-09-06T00:48:27.383Z,96483.69
2022-09-06T00:50:58.066Z,96488.69
2022-09-06T00:53:26.653Z,96482.50
2022-09-06T00:55:55.648Z,96487.66
2022-09-06T00:58:23.760Z,96479.44
2022-09-06T01:00:51.790Z,96478.78
2022-09-06T01:03:20.009Z,96479.03
2022-09-06T01:05:58.739Z,96480.06
2022-09-06T01:08:39.844Z,96487.50
2022-09-06T01:11:24.324Z,96479.22
2022-09-06T01:14:00.527Z,96476.31
2022-09-06T01:16:38.268Z,96472.94
2022-09-06T01:19:33.922Z,96481.03
2022-09-06T01:22:15.220Z,96487.00
2022-09-06T01:25:02.650Z,96502.81
2022-09-06T01:28:05.249Z,96494.97
2022-09-06T01:30:38.286Z,96486.38
2022-09-06T01:33:15.160Z,96489.50
2022-09-06T01:35:48.984Z,96481.44
2022-09-06T01:38:17.509Z,96488.63
2022-09-06T01:40:45.062Z,96482.00
2022-09-06T01:43:21.184Z,96489.22
2022-09-06T01:46:00.185Z,96490.44
2022-09-06T01:48:36.974Z,96487.75
2022-09-06T01:51:23.846Z,96491.47
2022-09-06T01:54:08.504Z,96487.19
2022-09-06T01:56:44.271Z,96491.56
2022-09-06T01:59:40.443Z,96490.19
2022-09-06T02:02:13.937Z,96490.38
2022-09-06T02:04:45.938Z,96486.88
2022-09-06T02:07:21.207Z,96494.69
2022-09-06T02:09:55.776Z,96493.25
2022-09-06T02:12:27.004Z,96487.25
2022-09-06T02:14:59.305Z,96491.38
2022-09-06T02:17:33.915Z,96485.38
2022-09-06T02:20:06.267Z,96487.19
2022-09-06T02:22:38.715Z,96488.78
2022-09-06T02:25:10.026Z,96482.13
2022-09-06T02:27:37.738Z,96482.25
2022-09-06T02:30:07.813Z,96482.88
2022-09-06T02:32:40.150Z,96484.16
2022-09-06T02:35:13.811Z,96486.56
2022-09-06T02:37:42.297Z,96489.94
2022-09-06T02:40:11.704Z,96493.66
2022-09-06T02:42:40.437Z,96488.28
2022-09-06T02:45:10.543Z,96481.66
2022-09-06T02:47:38.048Z,96477.72
2022-09-06T02:50:06.617Z,96478.28
2022-09-06T02:52:34.107Z,96469.94
2022-09-06T02:55:01.580Z,96474.34
2022-09-06T02:57:29.097Z,96472.44
2022-09-06T02:59:56.594Z,96468.16
2022-09-06T03:02:25.960Z,96466.88
2022-09-06T03:04:53.517Z,96462.88
2022-09-06T03:07:21.047Z,96460.88
2022-09-06T03:09:48.539Z,96461.72
2022-09-06T03:12:16.029Z,96462.94
2022-09-06T03:14:43.507Z,96462.56
2022-09-06T03:17:10.986Z,96456.19
2022-09-06T03:19:39.825Z,96461.72
2022-09-06T03:22:07.327Z,96470.38
2022-09-06T03:24:34.809Z,96468.16
2022-09-06T03:27:02.321Z,96464.94
2022-09-06T03:29:29.807Z,96464.16
2022-09-06T03:31:57.295Z,96467.66
2022-09-06T03:34:24.795Z,96463.47
2022-09-06T03:36:53.606Z,96467.50
2022-09-06T03:39:21.241Z,96462.34
2022-09-06T03:41:48.747Z,96464.41
2022-09-06T03:44:16.241Z,96464.19
2022-09-06T03:46:43.735Z,96469.34
2022-09-06T03:49:11.243Z,96468.50
2022-09-06T03:51:38.729Z,96462.72
2022-09-06T03:54:07.641Z,96462.72
2022-09-06T03:56:35.377Z,96462.56
2022-09-06T03:59:02.867Z,96457.84
2022-09-06T04:01:30.438Z,96449.97
2022-09-06T04:03:58.001Z,96451.22
2022-09-06T04:06:25.505Z,96453.38
2022-09-06T04:08:53.006Z,96454.78
2022-09-06T04:11:21.856Z,96455.00
2022-09-06T04:13:49.355Z,96447.53
2022-09-06T04:16:17.707Z,96452.03
2022-09-06T04:18:45.552Z,96448.50
2022-09-06T04:21:13.075Z,96453.50
2022-09-06T04:23:40.804Z,96451.25
2022-09-06T04:26:08.416Z,96453.16
2022-09-06T04:28:37.283Z,96454.41
2022-09-06T04:31:05.510Z,96452.25
2022-09-06T04:33:34.540Z,96455.56
2022-09-06T04:36:03.896Z,96462.97
2022-09-06T04:38:35.396Z,96454.63
2022-09-06T04:41:03.083Z,96458.22
2022-09-06T04:43:30.571Z,96461.16
2022-09-06T04:46:03.998Z,96458.50
2022-09-06T04:48:31.511Z,96463.09
2022-09-06T04:50:59.019Z,96464.00
2022-09-06T04:53:26.511Z,96465.88
2022-09-06T04:55:54.090Z,96462.28
2022-09-06T04:58:21.616Z,96458.84
2022-09-06T05:00:49.254Z,96456.06
2022-09-06T05:03:18.123Z,96455.66
2022-09-06T05:05:45.625Z,96460.56
2022-09-06T05:08:13.102Z,96464.56
2022-09-06T05:10:40.590Z,96451.88
2022-09-06T05:13:08.324Z,96457.47
2022-09-06T05:15:35.881Z,96466.75
2022-09-06T05:18:04.780Z,96461.81
2022-09-06T05:20:33.671Z,96463.19
2022-09-06T05:23:01.564Z,96464.16
2022-09-06T05:25:29.064Z,96467.09
2022-09-06T05:27:56.605Z,96472.34
2022-09-06T05:30:24.087Z,96470.41
2022-09-06T05:32:52.125Z,96463.38
2022-09-06T05:35:19.648Z,96456.94
2022-09-06T05:37:48.517Z,96464.72
2022-09-06T05:40:16.205Z,96467.59
2022-09-06T05:42:43.719Z,96470.06
2022-09-06T05:45:11.512Z,96464.72
2022-09-06T05:47:39.078Z,96461.16
2022-09-06T05:50:07.920Z,96473.25
2022-09-06T05:52:36.272Z,96459.97
2022-09-06T05:55:06.578Z,96473.47
2022-09-06T05:57:34.142Z,96467.81
2022-09-06T06:00:01.626Z,96465.09
2022-09-06T06:02:29.153Z,96470.88
2022-09-06T06:04:58.231Z,96467.84
2022-09-06T06:07:25.828Z,96477.69
2022-09-06T06:09:53.308Z,96481.00
2022-09-06T06:12:22.148Z,96475.25
2022-09-06T06:14:49.664Z,96479.69
2022-09-06T06:17:17.321Z,96469.31
2022-09-06T06:19:44.812Z,96470.56
2022-09-06T06:22:12.296Z,96479.03
2022-09-06T06:24:39.791Z,96478.41
2022-09-06T06:27:07.315Z,96476.50
2022-09-06T06:29:36.134Z,96489.84
2022-09-06T06:32:04.214Z,96486.09
2022-09-06T06:34:31.768Z,96481.09
2022-09-06T06:36:59.903Z,96485.03
2022-09-06T06:39:27.641Z,96490.69
2022-09-06T06:41:55.596Z,96483.34
2022-09-06T06:44:23.152Z,96481.75
2022-09-06T06:46:52.052Z,96471.72
2022-09-06T06:49:19.549Z,96477.00
2022-09-06T06:51:47.045Z,96481.50
2022-09-06T06:54:14.521Z,96477.56
2022-09-06T06:56:42.260Z,96480.03
2022-09-06T06:59:09.928Z,96481.88
2022-09-06T07:01:38.579Z,96478.13
2022-09-06T07:04:10.361Z,96486.63
2022-09-06T07:12:24.577Z,96487.28
2022-09-06T07:14:52.311Z,96496.06
2022-09-06T07:17:19.800Z,96486.06
2022-09-06T07:22:36.087Z,96491.97
2022-09-06T07:25:03.874Z,96491.25
2022-09-06T07:27:47.755Z,96488.31
2022-09-06T07:30:16.559Z,96482.66
2022-09-06T07:32:44.065Z,96476.28
2022-09-06T07:35:13.780Z,96490.41
2022-09-06T07:37:41.289Z,96489.59
2022-09-06T07:40:10.278Z,96495.56
2022-09-06T07:42:37.917Z,96492.97
2022-09-06T07:45:05.926Z,96493.81
2022-09-06T07:53:14.994Z,96479.03
2022-09-06T07:55:45.149Z,96473.41
2022-09-06T07:58:12.677Z,96461.34
2022-09-06T08:00:41.110Z,96462.41
2022-09-06T08:03:08.936Z,96461.59
2022-09-06T08:11:13.561Z,96473.66
2022-09-06T08:13:41.653Z,96471.16
2022-09-06T08:16:11.325Z,96467.94
2022-09-06T08:18:39.401Z,96461.69
2022-09-06T08:21:12.603Z,96466.38
2022-09-06T08:23:43.076Z,96455.00
2022-09-06T08:26:10.611Z,96465.63
2022-09-06T08:28:38.237Z,96460.63
2022-09-06T08:31:07.378Z,96458.34
2022-09-06T08:33:34.912Z,96466.44
2022-09-06T08:36:02.703Z,96468.53
2022-09-06T08:38:31.583Z,96475.66
2022-09-06T08:41:09.696Z,96482.06
2022-09-06T08:43:38.108Z,96474.97
2022-09-06T08:46:08.730Z,96467.78
2022-09-06T08:48:39.844Z,96470.75
2022-09-06T08:51:38.539Z,96469.28
2022-09-06T08:54:17.677Z,96467.72
2022-09-06T08:57:04.265Z,96460.19
2022-09-06T08:59:38.538Z,96461.75
2022-09-06T09:02:12.450Z,96459.63
2022-09-06T09:04:43.945Z,96454.16
2022-09-06T09:07:30.672Z,96455.22
2022-09-06T09:10:03.427Z,96463.78
2022-09-06T09:12:37.863Z,96451.94
2022-09-06T09:15:10.428Z,96458.00
2022-09-06T09:17:38.237Z,96456.25
2022-09-06T09:20:08.323Z,96456.97
2022-09-06T09:22:36.332Z,96457.94
2022-09-06T09:25:08.145Z,96459.63
2022-09-06T09:27:37.693Z,96456.94
2022-09-06T09:32:54.814Z,96458.97
2022-09-06T09:35:27.973Z,96451.22
2022-09-06T09:38:07.736Z,96452.00
2022-09-06T09:40:41.673Z,96455.84
2022-09-06T09:43:17.753Z,96457.69
2022-09-06T09:45:46.170Z,96442.66
2022-09-06T09:48:20.708Z,96440.91
2022-09-06T09:50:48.736Z,96435.97
2022-09-06T09:53:18.505Z,96440.09
2022-09-06T09:55:47.653Z,96417.56
2022-09-06T09:58:30.431Z,96416.50
2022-09-06T10:01:13.099Z,96415.38
2022-09-06T10:09:21.571Z,96404.78
2022-09-06T10:11:55.840Z,96405.19
2022-09-06T10:14:28.672Z,96399.56
2022-09-06T10:16:56.538Z,96392.00
2022-09-06T10:19:36.489Z,96395.38
2022-09-06T10:22:14.872Z,96405.53
2022-09-06T10:24:57.484Z,96385.69
2022-09-06T10:27:28.577Z,96401.06
2022-09-06T10:30:01.705Z,96389.31
2022-09-06T10:32:41.246Z,96389.38
2022-09-06T10:35:17.680Z,96390.22
2022-09-06T10:38:07.520Z,96387.44
2022-09-06T10:40:42.256Z,96391.81
2022-09-06T10:43:18.384Z,96388.47
2022-09-06T10:45:50.121Z,96384.47
2022-09-06T10:48:22.590Z,96383.56
2022-09-06T10:50:54.328Z,96381.19
2022-09-06T10:53:35.637Z,96379.00
2022-09-06T10:56:07.948Z,96373.72
2022-09-06T11:01:37.720Z,96370.72
2022-09-06T11:04:12.946Z,96370.81
2022-09-06T11:06:46.479Z,96363.19
2022-09-06T11:09:23.935Z,96366.63
2022-09-06T11:11:59.571Z,96376.22
2022-09-06T11:14:30.076Z,96368.50
2022-09-06T11:17:01.700Z,96361.03
2022-09-06T11:19:32.990Z,96359.25
2022-09-06T11:22:30.069Z,96350.50
2022-09-06T11:25:23.488Z,96350.78
2022-09-06T11:27:58.148Z,96353.22
2022-09-06T11:30:29.787Z,96349.81
2022-09-06T11:33:11.246Z,96350.81
2022-09-06T11:35:40.932Z,96345.53
2022-09-06T11:38:24.168Z,96336.28
2022-09-06T11:41:00.258Z,96325.34
2022-09-06T11:43:49.310Z,96326.88
2022-09-06T11:46:52.901Z,96334.00
2022-09-06T11:49:37.267Z,96324.72
2022-09-06T11:52:38.062Z,96320.28
2022-09-06T11:55:11.342Z,96329.66
2022-09-06T11:57:40.700Z,96324.22
2022-09-06T12:00:18.260Z,96327.38
2022-09-06T12:02:46.107Z,96321.72
2022-09-06T12:05:29.734Z,96311.09
2022-09-06T12:08:34.594Z,96306.59
2022-09-06T12:11:05.577Z,96315.81
2022-09-06T12:13:52.266Z,96314.03
2022-09-06T12:16:20.726Z,96304.41
2022-09-06T12:19:00.020Z,96294.72
2022-09-06T12:21:42.153Z,96304.56
2022-09-06T12:24:30.925Z,96305.50
2022-09-06T12:27:15.613Z,96293.88
2022-09-06T12:29:51.511Z,96293.34
2022-09-06T12:32:23.264Z,96296.19
2022-09-06T12:37:54.741Z,96285.22
2022-09-06T12:40:23.949Z,96281.34
2022-09-06T12:42:53.863Z,96283.69
2022-09-06T12:45:27.234Z,96282.19
2022-09-06T12:48:06.008Z,96275.03
2022-09-06T12:50:34.080Z,96275.69
2022-09-06T12:53:03.433Z,96273.00
2022-09-06T12:55:33.079Z,96270.53
2022-09-06T12:58:04.058Z,96266.53
2022-09-06T13:00:35.408Z,96263.69
2022-09-06T13:03:09.728Z,96259.72
2022-09-06T13:05:40.298Z,96255.16
2022-09-06T13:08:14.573Z,96276.25
2022-09-06T13:10:44.456Z,96261.66
2022-09-06T13:13:21.780Z,96256.22
2022-09-06T13:15:49.571Z,96259.34
2022-09-06T13:18:22.409Z,96249.75
2022-09-06T13:21:00.037Z,96247.31
2022-09-06T13:23:27.703Z,96244.38
2022-09-06T13:25:56.235Z,96245.16
2022-09-06T13:28:30.929Z,96247.50
2022-09-06T13:31:08.915Z,96248.44
2022-09-06T13:33:37.735Z,96247.50
2022-09-06T13:36:09.313Z,96245.94
2022-09-06T13:38:41.595Z,96249.38
2022-09-06T13:41:37.810Z,96245.50
2022-09-06T13:44:12.466Z,96243.22
2022-09-06T13:46:39.999Z,96243.22
2022-09-06T13:49:08.004Z,96238.72
2022-09-06T13:51:35.835Z,96239.41
2022-09-06T13:54:07.728Z,96238.72
2022-09-06T13:56:35.801Z,96227.47
2022-09-06T13:59:04.155Z,96234.00
2022-09-06T14:01:33.487Z,96226.63
2022-09-06T14:04:01.212Z,96229.47
2022-09-06T14:06:29.078Z,96218.69
2022-09-06T14:09:13.509Z,96228.69
2022-09-06T14:11:47.472Z,96226.06
2022-09-06T14:14:17.663Z,96235.97
2022-09-06T14:16:47.509Z,96223.50
2022-09-06T14:19:15.370Z,96219.66
2022-09-06T14:21:43.223Z,96224.50
2022-09-06T14:24:10.828Z,96220.44
2022-09-06T14:26:38.618Z,96228.16
2022-09-06T14:29:06.798Z,96221.25
2022-09-06T14:31:34.577Z,96210.66
2022-09-06T14:34:04.157Z,96214.19
2022-09-06T14:36:33.345Z,96207.72
2022-09-06T14:39:01.781Z,96207.50
2022-09-06T14:41:29.852Z,96199.88
2022-09-06T14:43:59.533Z,96200.63
2022-09-06T14:46:28.215Z,96198.81
2022-09-06T14:49:00.989Z,96201.06
2022-09-06T14:51:31.136Z,96199.63
2022-09-06T14:54:00.883Z,96197.81
2022-09-06T14:56:28.384Z,96202.50
2022-09-06T14:58:57.425Z,96198.59
2022-09-06T15:01:27.297Z,96204.34
2022-09-06T15:03:57.022Z,96195.09
2022-09-06T15:06:26.055Z,96195.44
2022-09-06T15:08:59.104Z,96192.53
2022-09-06T15:11:31.377Z,96179.72
2022-09-06T15:13:59.439Z,96187.44
2022-09-06T15:16:27.412Z,96191.28
2022-09-06T15:18:55.172Z,96175.00
2022-09-06T15:21:23.321Z,96180.47
2022-09-06T15:23:52.180Z,96169.50
2022-09-06T15:26:21.664Z,96174.34
2022-09-06T15:28:50.240Z,96168.31
2022-09-06T15:31:19.452Z,96170.13
2022-09-06T15:33:48.769Z,96166.97
2022-09-06T15:36:16.890Z,96163.22
2022-09-06T15:38:47.361Z,96160.25
2022-09-06T15:41:16.756Z,96156.91
2022-09-06T15:43:47.814Z,96157.28
2022-09-06T15:46:16.262Z,96161.03
2022-09-06T15:48:46.063Z,96162.91
2022-09-06T15:51:15.899Z,96161.78
2022-09-06T15:53:44.358Z,96152.50
2022-09-06T15:56:14.888Z,96161.06
2022-09-06T15:58:42.427Z,96159.50
2022-09-06T16:01:13.417Z,96152.78
2022-09-06T16:03:42.819Z,96157.28
2022-09-06T16:06:28.649Z,96158.31
2022-09-06T16:08:59.253Z,96156.78
2022-09-06T16:11:27.975Z,96151.16
2022-09-06T16:13:55.672Z,96154.19
2022-09-06T16:16:24.595Z,96153.59
2022-09-06T16:18:53.099Z,96149.63
2022-09-06T16:21:23.940Z,96153.13
2022-09-06T16:23:53.595Z,96144.91
2022-09-06T16:26:22.037Z,96142.47
2022-09-06T16:28:50.799Z,96144.88
2022-09-06T16:31:18.865Z,96133.66
2022-09-06T16:33:48.969Z,96138.06
2022-09-06T16:36:17.263Z,96133.50
2022-09-06T16:38:45.237Z,96134.41
2022-09-06T16:41:15.548Z,96135.72
2022-09-06T16:43:43.496Z,96136.94
2022-09-06T16:46:12.050Z,96139.66
2022-09-06T16:48:41.384Z,96128.84
2022-09-06T16:51:11.597Z,96126.81
2022-09-06T16:53:41.057Z,96129.50
2022-09-06T16:56:09.189Z,96121.22
2022-09-06T16:58:36.726Z,96120.38
2022-09-06T17:01:04.268Z,96116.88
2022-09-06T17:03:31.786Z,96129.34
2022-09-06T17:05:59.264Z,96132.31
2022-09-06T17:08:28.117Z,96126.63
2022-09-06T17:10:55.633Z,96120.78
2022-09-06T17:13:23.108Z,96124.25
2022-09-06T17:16:11.360Z,96121.63
2022-09-06T17:18:39.237Z,96124.47
2022-09-06T17:21:07.534Z,96112.56
2022-09-06T17:23:37.369Z,96116.22
2022-09-06T17:26:06.119Z,96117.38
2022-09-06T17:28:34.468Z,96125.44
2022-09-06T17:31:03.802Z,96121.91
2022-09-06T17:33:32.341Z,96110.91
2022-09-06T17:36:07.874Z,96118.72
2022-09-06T17:38:36.889Z,96123.53
2022-09-06T17:41:04.907Z,96121.69
2022-09-06T17:43:32.510Z,96124.97
2022-09-06T17:46:00.186Z,96127.97
2022-09-06T17:48:29.398Z,96131.22
2022-09-06T17:50:57.108Z,96132.75
2022-09-06T17:53:24.729Z,96132.34
2022-09-06T17:55:53.739Z,96140.81
2022-09-06T17:58:21.231Z,96137.22
2022-09-06T18:00:48.741Z,96146.97
2022-09-06T18:03:16.253Z,96147.56
2022-09-06T18:05:45.180Z,96141.47
2022-09-06T18:08:12.949Z,96154.63
2022-09-06T18:10:40.459Z,96153.06
2022-09-06T18:13:09.345Z,96154.28
2022-09-06T18:15:41.515Z,96153.97
2022-09-06T18:18:09.025Z,96157.91
2022-09-06T18:20:36.935Z,96155.88
2022-09-06T18:23:04.545Z,96156.47
2022-09-06T18:25:32.052Z,96157.66
2022-09-06T18:27:59.578Z,96162.56
2022-09-06T18:30:28.491Z,96170.47
2022-09-06T18:32:55.984Z,96175.53
2022-09-06T18:35:23.595Z,96180.09
2022-09-06T18:37:51.096Z,96173.25
2022-09-06T18:40:18.640Z,96180.84
2022-09-06T18:42:46.529Z,96178.97
2022-09-06T18:45:14.126Z,96184.66
2022-09-06T18:47:44.491Z,96178.28
2022-09-06T18:50:12.552Z,96179.09
2022-09-06T18:52:40.083Z,96180.91
2022-09-06T18:55:08.420Z,96169.94
2022-09-06T18:57:35.932Z,96173.88
2022-09-06T19:00:05.159Z,96180.59
2022-09-06T19:02:32.782Z,96184.25
2022-09-06T19:05:01.702Z,96191.16
2022-09-06T19:07:29.845Z,96192.34
2022-09-06T19:09:57.724Z,96189.63
2022-09-06T19:12:25.309Z,96193.78
2022-09-06T19:14:52.840Z,96187.06
2022-09-06T19:17:20.359Z,96180.13
2022-09-06T19:19:47.842Z,96194.50
2022-09-06T19:22:17.551Z,96194.97
2022-09-06T19:24:45.286Z,96196.75
2022-09-06T19:27:12.837Z,96193.09
2022-09-06T19:29:40.418Z,96198.50
2022-09-06T19:32:07.941Z,96197.34
2022-09-06T19:34:35.478Z,96195.00
2022-09-06T19:37:03.013Z,96191.81
2022-09-06T19:39:36.851Z,96186.06
2022-09-06T19:42:05.839Z,96188.97
2022-09-06T19:44:33.486Z,96177.72
2022-09-06T19:47:01.054Z,96176.34
2022-09-06T19:49:30.577Z,96177.22
2022-09-06T19:51:58.091Z,96177.63
2022-09-06T19:54:25.748Z,96180.41
2022-09-06T19:56:54.588Z,96174.44
2022-09-06T19:59:22.107Z,96179.28
2022-09-06T20:01:49.684Z,96178.69
2022-09-06T20:04:17.218Z,96176.38
2022-09-06T20:06:45.261Z,96179.25
2022-09-06T20:09:13.201Z,96169.34
2022-09-06T20:11:41.980Z,96173.06
2022-09-06T20:14:11.722Z,96167.91
2022-09-06T20:16:42.277Z,96172.44
2022-09-06T20:19:10.706Z,96169.31
2022-09-06T20:21:38.207Z,96164.06
2022-09-06T20:24:05.999Z,96166.44
2022-09-06T20:26:33.507Z,96157.09
2022-09-06T20:29:03.267Z,96156.50
2022-09-06T20:31:33.362Z,96161.06
2022-09-06T20:34:02.883Z,96153.66
2022-09-06T20:36:30.527Z,96144.97
2022-09-06T20:38:58.266Z,96152.47
2022-09-06T20:41:27.214Z,96140.50
2022-09-06T20:43:56.137Z,96139.53
2022-09-06T20:46:25.610Z,96144.63
2022-09-06T20:48:57.172Z,96145.41
2022-09-06T20:51:25.186Z,96142.81
2022-09-06T20:53:56.327Z,96135.81
2022-09-06T20:56:26.392Z,96132.59
2022-09-06T20:58:55.892Z,96138.34
2022-09-06T21:01:25.361Z,96135.28
2022-09-06T21:03:56.394Z,96126.97
2022-09-06T21:06:25.532Z,96127.94
2022-09-06T21:08:53.627Z,96138.53
2022-09-06T21:11:21.356Z,96125.63
2022-09-06T21:13:50.324Z,96133.88
2022-09-06T21:16:23.291Z,96136.50
2022-09-06T21:18:54.079Z,96136.66
2022-09-06T21:21:22.405Z,96137.56
2022-09-06T21:23:50.330Z,96145.47
2022-09-06T21:26:18.145Z,96156.53
2022-09-06T21:28:47.050Z,96148.47
2022-09-06T21:31:15.973Z,96148.56
2022-09-06T21:33:46.153Z,96146.41
2022-09-06T21:36:16.522Z,96143.41
2022-09-06T21:38:45.390Z,96145.53
2022-09-06T21:41:14.275Z,96143.72
2022-09-06T21:43:42.612Z,96148.16
2022-09-06T21:46:12.473Z,96155.47
2022-09-06T21:48:40.488Z,96152.31
2022-09-06T21:51:08.595Z,96147.88
2022-09-06T21:53:38.216Z,96138.22
2022-09-06T21:56:06.482Z,96141.19
2022-09-06T21:58:34.604Z,96135.13
2022-09-06T22:01:02.992Z,96134.09
2022-09-06T22:03:31.765Z,96140.47
2022-09-06T22:05:59.917Z,96143.28
2022-09-06T22:08:27.454Z,96148.81
2022-09-06T22:10:56.263Z,96143.72
2022-09-06T22:13:23.804Z,96144.53
2022-09-06T22:15:51.315Z,96141.72
2022-09-06T22:18:18.879Z,96144.03
2022-09-06T22:20:46.351Z,96144.94
2022-09-06T22:23:13.855Z,96155.13
2022-09-06T22:25:41.932Z,96156.28
2022-09-06T22:28:10.776Z,96156.28
2022-09-06T22:30:38.255Z,96156.75
2022-09-06T22:33:05.767Z,96163.44
2022-09-06T22:35:33.256Z,96165.03
2022-09-06T22:38:00.795Z,96163.59
2022-09-06T22:40:28.290Z,96167.34
2022-09-06T22:42:55.789Z,96163.25
2022-09-06T22:45:24.672Z,96165.72
2022-09-06T22:47:52.163Z,96166.53
2022-09-06T22:50:19.671Z,96169.84
2022-09-06T22:52:47.279Z,96173.13
2022-09-06T22:55:14.958Z,96171.69
2022-09-06T22:57:42.513Z,96174.22
2022-09-06T23:00:11.607Z,96164.00
2022-09-06T23:02:40.459Z,96163.78
2022-09-06T23:05:08.691Z,96160.00
2022-09-06T23:07:36.620Z,96156.84
2022-09-06T23:10:04.730Z,96159.34
2022-09-06T23:12:32.252Z,96152.81
2022-09-06T23:14:59.750Z,96151.19
2022-09-06T23:17:27.289Z,96149.34
2022-09-06T23:19:56.112Z,96154.47
2022-09-06T23:22:23.631Z,96151.94
2022-09-06T23:24:51.148Z,96155.94
2022-09-06T23:27:18.760Z,96152.88
2022-09-06T23:29:46.277Z,96150.50
2022-09-06T23:32:13.968Z,96156.84
2022-09-06T23:34:41.510Z,96150.56
2022-09-06T23:37:10.391Z,96146.03
2022-09-06T23:39:37.936Z,96150.31
2022-09-06T23:42:05.520Z,96149.44
2022-09-06T23:44:33.026Z,96146.09
2022-09-06T23:47:00.545Z,96138.81
2022-09-06T23:49:28.093Z,96132.09
2022-09-06T23:51:55.622Z,96122.28
2022-09-06T23:54:24.516Z,96119.06
2022-09-06T23:56:51.998Z,96115.19
2022-09-06T23:59:19.490Z,96114.34
